sensor_id;sensor_type;location;lat;lon;timestamp;pressure;altitude;pressure_sealevel;temperature;humidity
75219;BME280;63801;49.414;19.474;2023-07-24T00:01:46;93553.53;;;20.27;55.99
75219;BME280;63801;49.414;19.474;2023-07-24T00:03:49;93572.72;;;20.31;56.09
75219;BME280;63801;49.414;19.474;2023-07-24T00:05:50;93577.75;;;20.32;55.78
75219;BME280;63801;49.414;19.474;2023-07-24T00:07:50;93563.72;;;20.30;55.72
75219;BME280;63801;49.414;19.474;2023-07-24T00:09:50;93566.84;;;20.29;56.21
75219;BME280;63801;49.414;19.474;2023-07-24T00:11:51;93547.31;;;20.27;55.62
75219;BME280;63801;49.414;19.474;2023-07-24T00:13:51;93566.84;;;20.29;55.88
75219;BME280;63801;49.414;19.474;2023-07-24T00:15:51;93558.63;;;20.29;56.30
75219;BME280;63801;49.414;19.474;2023-07-24T00:17:52;93560.97;;;20.30;56.06
75219;BME280;63801;49.414;19.474;2023-07-24T00:19:52;93541.53;;;20.21;56.31
75219;BME280;63801;49.414;19.474;2023-07-24T00:21:52;93550.47;;;20.25;56.61
75219;BME280;63801;49.414;19.474;2023-07-24T00:23:53;93552.44;;;20.25;56.61
75219;BME280;63801;49.414;19.474;2023-07-24T00:25:53;93545.81;;;20.22;56.58
75219;BME280;63801;49.414;19.474;2023-07-24T00:27:54;93549.81;;;20.17;56.92
75219;BME280;63801;49.414;19.474;2023-07-24T00:29:54;93549.09;;;20.13;56.82
75219;BME280;63801;49.414;19.474;2023-07-24T00:31:55;93528.91;;;20.00;57.19
75219;BME280;63801;49.414;19.474;2023-07-24T00:33:55;93545.59;;;20.09;57.19
75219;BME280;63801;49.414;19.474;2023-07-24T00:35:56;93540.56;;;20.08;57.16
75219;BME280;63801;49.414;19.474;2023-07-24T00:38:00;93543.69;;;20.06;57.32
75219;BME280;63801;49.414;19.474;2023-07-24T00:40:02;93531.19;;;20.05;57.80
75219;BME280;63801;49.414;19.474;2023-07-24T00:42:02;93534.38;;;20.00;57.69
75219;BME280;63801;49.414;19.474;2023-07-24T00:44:03;93532.41;;;20.04;58.06
75219;BME280;63801;49.414;19.474;2023-07-24T00:46:04;93528.09;;;20.03;58.04
75219;BME280;63801;49.414;19.474;2023-07-24T00:48:04;93536.72;;;20.02;58.06
75219;BME280;63801;49.414;19.474;2023-07-24T00:50:05;93532.88;;;19.99;58.23
75219;BME280;63801;49.414;19.474;2023-07-24T00:52:07;93522.72;;;19.96;58.64
75219;BME280;63801;49.414;19.474;2023-07-24T00:54:08;93523.94;;;19.95;58.54
75219;BME280;63801;49.414;19.474;2023-07-24T00:56:09;93526.66;;;19.95;59.17
75219;BME280;63801;49.414;19.474;2023-07-24T00:58:13;93512.72;;;19.86;59.14
75219;BME280;63801;49.414;19.474;2023-07-24T01:00:13;93532.03;;;20.02;59.23
75219;BME280;63801;49.414;19.474;2023-07-24T01:02:14;93500.81;;;20.00;59.51
75219;BME280;63801;49.414;19.474;2023-07-24T01:04:14;93492.28;;;19.94;59.27
75219;BME280;63801;49.414;19.474;2023-07-24T01:06:15;93511.22;;;20.08;59.56
75219;BME280;63801;49.414;19.474;2023-07-24T01:08:15;93516.53;;;20.19;59.52
75219;BME280;63801;49.414;19.474;2023-07-24T01:10:15;93519.19;;;20.23;59.72
75219;BME280;63801;49.414;19.474;2023-07-24T01:12:45;93508.25;;;20.23;59.34
75219;BME280;63801;49.414;19.474;2023-07-24T01:15:16;93515.22;;;20.27;59.25
75219;BME280;63801;49.414;19.474;2023-07-24T01:17:23;93512.13;;;20.25;59.27
75219;BME280;63801;49.414;19.474;2023-07-24T01:19:41;93493.84;;;20.18;59.38
75219;BME280;63801;49.414;19.474;2023-07-24T01:21:58;93502.31;;;20.28;59.32
75219;BME280;63801;49.414;19.474;2023-07-24T01:24:14;93508.97;;;20.30;59.31
75219;BME280;63801;49.414;19.474;2023-07-24T01:26:21;93484.81;;;20.22;59.51
75219;BME280;63801;49.414;19.474;2023-07-24T01:28:24;93515.22;;;20.31;59.42
75219;BME280;63801;49.414;19.474;2023-07-24T01:30:25;93499.13;;;20.33;59.54
75219;BME280;63801;49.414;19.474;2023-07-24T01:32:25;93501.88;;;20.33;59.79
75219;BME280;63801;49.414;19.474;2023-07-24T01:34:26;93497.16;;;20.33;59.88
75219;BME280;63801;49.414;19.474;2023-07-24T01:36:26;93513.53;;;20.37;59.92
75219;BME280;63801;49.414;19.474;2023-07-24T01:38:27;93488.97;;;20.33;59.97
75219;BME280;63801;49.414;19.474;2023-07-24T01:40:28;93493.97;;;20.38;60.20
75219;BME280;63801;49.414;19.474;2023-07-24T01:42:29;93490.81;;;20.40;60.14
75219;BME280;63801;49.414;19.474;2023-07-24T01:44:29;93496.28;;;20.40;59.93
75219;BME280;63801;49.414;19.474;2023-07-24T01:46:30;93485.47;;;20.29;60.42
75219;BME280;63801;49.414;19.474;2023-07-24T01:48:30;93480.00;;;20.29;60.07
75219;BME280;63801;49.414;19.474;2023-07-24T01:50:31;93497.88;;;20.37;61.04
75219;BME280;63801;49.414;19.474;2023-07-24T01:52:31;93482.22;;;20.38;60.96
75219;BME280;63801;49.414;19.474;2023-07-24T01:54:31;93472.13;;;20.35;61.41
75219;BME280;63801;49.414;19.474;2023-07-24T01:56:33;93480.69;;;20.37;61.01
75219;BME280;63801;49.414;19.474;2023-07-24T01:58:34;93483.78;;;20.39;61.41
75219;BME280;63801;49.414;19.474;2023-07-24T02:00:34;93466.50;;;20.42;61.14
75219;BME280;63801;49.414;19.474;2023-07-24T02:02:34;93482.94;;;20.42;61.59
75219;BME280;63801;49.414;19.474;2023-07-24T02:04:34;93471.16;;;20.45;61.50
75219;BME280;63801;49.414;19.474;2023-07-24T02:06:35;93483.66;;;20.46;61.72
75219;BME280;63801;49.414;19.474;2023-07-24T02:08:35;93479.38;;;20.45;61.96
75219;BME280;63801;49.414;19.474;2023-07-24T02:10:38;93485.63;;;20.45;61.87
75219;BME280;63801;49.414;19.474;2023-07-24T02:12:39;93480.63;;;20.40;62.14
75219;BME280;63801;49.414;19.474;2023-07-24T02:14:39;93475.19;;;20.37;61.83
75219;BME280;63801;49.414;19.474;2023-07-24T02:16:40;93465.81;;;20.38;61.97
75219;BME280;63801;49.414;19.474;2023-07-24T02:18:41;93474.41;;;20.36;61.98
75219;BME280;63801;49.414;19.474;2023-07-24T02:20:48;93466.00;;;20.24;61.85
75219;BME280;63801;49.414;19.474;2023-07-24T02:22:48;93466.28;;;20.33;61.94
75219;BME280;63801;49.414;19.474;2023-07-24T02:24:49;93472.19;;;20.28;61.62
75219;BME280;63801;49.414;19.474;2023-07-24T02:26:49;93463.63;;;20.26;62.47
75219;BME280;63801;49.414;19.474;2023-07-24T02:28:49;93470.69;;;20.23;61.84
75219;BME280;63801;49.414;19.474;2023-07-24T02:30:50;93464.94;;;20.17;62.30
75219;BME280;63801;49.414;19.474;2023-07-24T02:32:52;93474.75;;;20.15;62.15
75219;BME280;63801;49.414;19.474;2023-07-24T02:34:53;93471.34;;;20.07;62.26
75219;BME280;63801;49.414;19.474;2023-07-24T02:36:53;93469.47;;;20.04;62.96
75219;BME280;63801;49.414;19.474;2023-07-24T02:38:53;93469.19;;;19.95;63.13
75219;BME280;63801;49.414;19.474;2023-07-24T02:40:54;93473.13;;;19.94;63.18
75219;BME280;63801;49.414;19.474;2023-07-24T02:42:54;93465.75;;;19.91;63.53
75219;BME280;63801;49.414;19.474;2023-07-24T02:44:54;93466.56;;;19.88;63.54
75219;BME280;63801;49.414;19.474;2023-07-24T02:46:55;93465.84;;;19.84;64.04
75219;BME280;63801;49.414;19.474;2023-07-24T02:48:55;93469.41;;;19.81;64.41
75219;BME280;63801;49.414;19.474;2023-07-24T02:50:55;93474.50;;;19.79;63.96
75219;BME280;63801;49.414;19.474;2023-07-24T02:52:55;93467.06;;;19.80;63.95
75219;BME280;63801;49.414;19.474;2023-07-24T02:54:56;93460.47;;;19.77;64.52
75219;BME280;63801;49.414;19.474;2023-07-24T02:56:56;93469.88;;;19.76;64.32
75219;BME280;63801;49.414;19.474;2023-07-24T02:58:58;93462.06;;;19.74;64.69
75219;BME280;63801;49.414;19.474;2023-07-24T03:01:05;93465.63;;;19.71;64.32
75219;BME280;63801;49.414;19.474;2023-07-24T03:03:08;93462.53;;;19.69;64.71
75219;BME280;63801;49.414;19.474;2023-07-24T03:05:09;93455.94;;;19.67;64.58
75219;BME280;63801;49.414;19.474;2023-07-24T03:07:09;93462.22;;;19.64;64.63
75219;BME280;63801;49.414;19.474;2023-07-24T03:09:09;93457.53;;;19.64;64.77
75219;BME280;63801;49.414;19.474;2023-07-24T03:11:10;93462.22;;;19.64;64.70
75219;BME280;63801;49.414;19.474;2023-07-24T03:13:10;93445.56;;;19.55;64.90
75219;BME280;63801;49.414;19.474;2023-07-24T03:15:10;93457.53;;;19.64;64.82
75219;BME280;63801;49.414;19.474;2023-07-24T03:17:11;93456.75;;;19.64;64.58
75219;BME280;63801;49.414;19.474;2023-07-24T03:19:11;93457.56;;;19.61;64.63
75219;BME280;63801;49.414;19.474;2023-07-24T03:21:11;93452.88;;;19.61;64.97
75219;BME280;63801;49.414;19.474;2023-07-24T03:23:12;93458.34;;;19.61;64.73
75219;BME280;63801;49.414;19.474;2023-07-24T03:25:13;93459.84;;;19.66;64.69
75219;BME280;63801;49.414;19.474;2023-07-24T03:27:13;93466.03;;;19.70;64.55
75219;BME280;63801;49.414;19.474;2023-07-24T03:29:14;93456.66;;;19.71;64.76
75219;BME280;63801;49.414;19.474;2023-07-24T03:31:14;93462.50;;;19.73;64.99
75219;BME280;63801;49.414;19.474;2023-07-24T03:33:16;93458.94;;;19.76;64.60
75219;BME280;63801;49.414;19.474;2023-07-24T03:35:16;93455.34;;;19.79;64.85
75219;BME280;63801;49.414;19.474;2023-07-24T03:37:16;93456.06;;;19.83;64.99
75219;BME280;63801;49.414;19.474;2023-07-24T03:39:17;93458.78;;;19.87;65.02
75219;BME280;63801;49.414;19.474;2023-07-24T03:41:17;93460.28;;;19.91;64.87
75219;BME280;63801;49.414;19.474;2023-07-24T03:43:17;93455.53;;;19.95;64.69
75219;BME280;63801;49.414;19.474;2023-07-24T03:45:18;93452.78;;;19.95;64.59
75219;BME280;63801;49.414;19.474;2023-07-24T03:47:18;93436.06;;;19.90;64.39
75219;BME280;63801;49.414;19.474;2023-07-24T03:49:18;93462.44;;;20.03;64.48
75219;BME280;63801;49.414;19.474;2023-07-24T03:51:19;93453.03;;;20.04;64.45
75219;BME280;63801;49.414;19.474;2023-07-24T03:53:19;93449.09;;;20.05;64.65
75219;BME280;63801;49.414;19.474;2023-07-24T03:55:19;93448.28;;;20.08;64.25
75219;BME280;63801;49.414;19.474;2023-07-24T03:57:20;93457.66;;;20.07;64.51
75219;BME280;63801;49.414;19.474;2023-07-24T03:59:20;93443.97;;;20.07;64.50
75219;BME280;63801;49.414;19.474;2023-07-24T04:01:20;93440.47;;;20.07;64.33
75219;BME280;63801;49.414;19.474;2023-07-24T04:03:21;93453.75;;;20.08;64.22
75219;BME280;63801;49.414;19.474;2023-07-24T04:05:21;93440.88;;;20.05;64.39
75219;BME280;63801;49.414;19.474;2023-07-24T04:07:21;93432.25;;;20.07;64.61
75219;BME280;63801;49.414;19.474;2023-07-24T04:09:22;93433.50;;;20.02;64.58
75219;BME280;63801;49.414;19.474;2023-07-24T04:11:22;93444.31;;;20.09;64.40
75219;BME280;63801;49.414;19.474;2023-07-24T04:13:22;93443.63;;;20.05;64.78
75219;BME280;63801;49.414;19.474;2023-07-24T04:15:23;93438.13;;;20.05;64.39
75219;BME280;63801;49.414;19.474;2023-07-24T04:17:23;93457.19;;;20.12;64.54
75219;BME280;63801;49.414;19.474;2023-07-24T04:19:23;93443.44;;;20.16;64.96
75219;BME280;63801;49.414;19.474;2023-07-24T04:21:24;93434.22;;;20.06;64.69
75219;BME280;63801;49.414;19.474;2023-07-24T04:23:24;93448.03;;;20.23;64.50
75219;BME280;63801;49.414;19.474;2023-07-24T04:25:24;93440.19;;;20.25;64.63
75219;BME280;63801;49.414;19.474;2023-07-24T04:27:25;93439.97;;;20.39;65.27
75219;BME280;63801;49.414;19.474;2023-07-24T04:29:25;93426.47;;;20.71;64.54
75219;BME280;63801;49.414;19.474;2023-07-24T04:31:26;93435.63;;;21.04;63.12
75219;BME280;63801;49.414;19.474;2023-07-24T04:33:26;93442.25;;;21.06;62.75
75219;BME280;63801;49.414;19.474;2023-07-24T04:35:27;93451.38;;;21.00;63.21
75219;BME280;63801;49.414;19.474;2023-07-24T04:37:27;93453.03;;;20.94;62.99
75219;BME280;63801;49.414;19.474;2023-07-24T04:39:28;93441.44;;;20.86;63.57
75219;BME280;63801;49.414;19.474;2023-07-24T04:41:28;93449.38;;;20.81;63.63
75219;BME280;63801;49.414;19.474;2023-07-24T04:43:29;93458.03;;;20.79;63.55
75219;BME280;63801;49.414;19.474;2023-07-24T04:45:29;93446.06;;;20.70;63.44
75219;BME280;63801;49.414;19.474;2023-07-24T04:47:30;93449.16;;;20.72;63.64
75219;BME280;63801;49.414;19.474;2023-07-24T04:49:30;93437.94;;;20.66;63.93
75219;BME280;63801;49.414;19.474;2023-07-24T04:51:32;93439.13;;;20.65;64.03
75219;BME280;63801;49.414;19.474;2023-07-24T04:53:33;93440.28;;;20.64;64.03
75219;BME280;63801;49.414;19.474;2023-07-24T04:55:33;93448.97;;;20.82;64.87
75219;BME280;63801;49.414;19.474;2023-07-24T04:57:33;93447.16;;;21.55;63.17
75219;BME280;63801;49.414;19.474;2023-07-24T04:59:34;93446.16;;;22.17;62.41
75219;BME280;63801;49.414;19.474;2023-07-24T05:01:34;93440.91;;;23.00;60.65
75219;BME280;63801;49.414;19.474;2023-07-24T05:03:34;93444.72;;;23.72;59.09
75219;BME280;63801;49.414;19.474;2023-07-24T05:05:34;93443.97;;;24.35;57.37
75219;BME280;63801;49.414;19.474;2023-07-24T05:07:35;93433.06;;;24.91;56.60
75219;BME280;63801;49.414;19.474;2023-07-24T05:09:35;93433.22;;;25.31;55.00
75219;BME280;63801;49.414;19.474;2023-07-24T05:11:35;93434.94;;;25.60;54.26
75219;BME280;63801;49.414;19.474;2023-07-24T05:13:36;93431.72;;;25.92;53.15
75219;BME280;63801;49.414;19.474;2023-07-24T05:15:36;93417.06;;;26.13;53.02
75219;BME280;63801;49.414;19.474;2023-07-24T05:17:36;93435.78;;;26.40;52.32
75219;BME280;63801;49.414;19.474;2023-07-24T05:19:37;93430.72;;;26.57;51.75
75219;BME280;63801;49.414;19.474;2023-07-24T05:21:37;93442.28;;;26.82;51.22
75219;BME280;63801;49.414;19.474;2023-07-24T05:23:37;93436.03;;;27.09;51.13
75219;BME280;63801;49.414;19.474;2023-07-24T05:25:37;93436.03;;;27.37;50.69
75219;BME280;63801;49.414;19.474;2023-07-24T05:27:38;93434.19;;;27.61;50.25
75219;BME280;63801;49.414;19.474;2023-07-24T05:29:38;93434.44;;;27.81;49.47
75219;BME280;63801;49.414;19.474;2023-07-24T05:31:39;93446.84;;;28.13;49.65
75219;BME280;63801;49.414;19.474;2023-07-24T05:33:39;93435.50;;;28.35;48.66
75219;BME280;63801;49.414;19.474;2023-07-24T05:35:39;93429.56;;;28.51;48.93
75219;BME280;63801;49.414;19.474;2023-07-24T05:37:39;93433.78;;;28.70;48.50
75219;BME280;63801;49.414;19.474;2023-07-24T05:39:40;93433.28;;;28.81;47.57
75219;BME280;63801;49.414;19.474;2023-07-24T05:41:40;93428.47;;;28.81;48.00
75219;BME280;63801;49.414;19.474;2023-07-24T05:43:40;93413.34;;;28.82;47.27
75219;BME280;63801;49.414;19.474;2023-07-24T05:45:41;93443.88;;;28.82;47.36
75219;BME280;63801;49.414;19.474;2023-07-24T05:47:41;93429.16;;;28.67;47.61
75219;BME280;63801;49.414;19.474;2023-07-24T05:49:41;93429.03;;;28.71;47.88
75219;BME280;63801;49.414;19.474;2023-07-24T05:51:41;93438.69;;;28.75;47.92
75219;BME280;63801;49.414;19.474;2023-07-24T05:53:42;93431.72;;;28.80;47.96
75219;BME280;63801;49.414;19.474;2023-07-24T05:55:42;93431.03;;;28.61;47.56
75219;BME280;63801;49.414;19.474;2023-07-24T05:57:44;93445.22;;;28.72;47.91
75219;BME280;63801;49.414;19.474;2023-07-24T05:59:44;93427.63;;;28.66;47.96
75219;BME280;63801;49.414;19.474;2023-07-24T06:01:45;93434.81;;;28.49;47.95
75219;BME280;63801;49.414;19.474;2023-07-24T06:03:45;93444.38;;;28.48;48.37
75219;BME280;63801;49.414;19.474;2023-07-24T06:05:45;93445.56;;;28.56;48.25
75219;BME280;63801;49.414;19.474;2023-07-24T06:07:47;93432.59;;;28.62;48.07
75219;BME280;63801;49.414;19.474;2023-07-24T06:09:47;93436.78;;;28.81;48.04
75219;BME280;63801;49.414;19.474;2023-07-24T06:11:47;93427.75;;;28.95;47.92
75219;BME280;63801;49.414;19.474;2023-07-24T06:13:48;93443.75;;;29.00;47.93
75219;BME280;63801;49.414;19.474;2023-07-24T06:15:49;93455.94;;;29.03;47.93
75219;BME280;63801;49.414;19.474;2023-07-24T06:17:49;93449.75;;;28.84;47.62
75219;BME280;63801;49.414;19.474;2023-07-24T06:19:50;93431.69;;;28.56;48.47
75219;BME280;63801;49.414;19.474;2023-07-24T06:21:50;93449.75;;;28.84;48.01
75219;BME280;63801;49.414;19.474;2023-07-24T06:23:50;93458.91;;;28.76;48.01
75219;BME280;63801;49.414;19.474;2023-07-24T06:25:51;93446.09;;;28.69;48.34
75219;BME280;63801;49.414;19.474;2023-07-24T06:27:53;93448.06;;;28.78;47.87
75219;BME280;63801;49.414;19.474;2023-07-24T06:29:53;93443.25;;;28.87;47.72
75219;BME280;63801;49.414;19.474;2023-07-24T06:31:53;93427.66;;;28.90;47.77
75219;BME280;63801;49.414;19.474;2023-07-24T06:33:54;93453.31;;;28.99;47.94
75219;BME280;63801;49.414;19.474;2023-07-24T06:35:54;93434.84;;;28.96;47.56
75219;BME280;63801;49.414;19.474;2023-07-24T06:37:55;93435.75;;;29.02;47.39
75219;BME280;63801;49.414;19.474;2023-07-24T06:39:55;93444.41;;;28.95;47.06
75219;BME280;63801;49.414;19.474;2023-07-24T06:41:56;93448.25;;;28.74;47.29
75219;BME280;63801;49.414;19.474;2023-07-24T06:43:56;93455.03;;;28.73;47.44
75219;BME280;63801;49.414;19.474;2023-07-24T06:45:57;93459.25;;;28.92;47.17
75219;BME280;63801;49.414;19.474;2023-07-24T06:47:57;93459.47;;;29.03;46.67
75219;BME280;63801;49.414;19.474;2023-07-24T06:49:58;93453.81;;;28.98;46.08
75219;BME280;63801;49.414;19.474;2023-07-24T06:51:58;93438.97;;;29.01;46.43
75219;BME280;63801;49.414;19.474;2023-07-24T06:53:59;93453.44;;;29.05;46.49
75219;BME280;63801;49.414;19.474;2023-07-24T06:55:59;93469.28;;;29.14;46.17
75219;BME280;63801;49.414;19.474;2023-07-24T06:58:00;93459.41;;;29.13;46.59
75219;BME280;63801;49.414;19.474;2023-07-24T07:00:00;93448.03;;;29.49;45.83
75219;BME280;63801;49.414;19.474;2023-07-24T07:02:00;93459.44;;;29.66;45.60
75219;BME280;63801;49.414;19.474;2023-07-24T07:04:01;93472.53;;;29.89;44.48
75219;BME280;63801;49.414;19.474;2023-07-24T07:06:02;93465.72;;;29.90;44.64
75219;BME280;63801;49.414;19.474;2023-07-24T07:08:03;93452.19;;;29.98;44.52
75219;BME280;63801;49.414;19.474;2023-07-24T07:10:03;93457.84;;;29.88;43.59
75219;BME280;63801;49.414;19.474;2023-07-24T07:12:05;93454.19;;;29.82;44.00
75219;BME280;63801;49.414;19.474;2023-07-24T07:14:06;93452.31;;;29.88;43.95
75219;BME280;63801;49.414;19.474;2023-07-24T07:16:09;93444.44;;;30.02;43.63
75219;BME280;63801;49.414;19.474;2023-07-24T07:18:09;93440.59;;;30.14;43.52
75219;BME280;63801;49.414;19.474;2023-07-24T07:20:09;93454.56;;;30.34;43.20
75219;BME280;63801;49.414;19.474;2023-07-24T07:22:10;93439.31;;;30.29;42.82
75219;BME280;63801;49.414;19.474;2023-07-24T07:24:10;93442.66;;;30.33;42.63
75219;BME280;63801;49.414;19.474;2023-07-24T07:26:10;93429.66;;;30.25;42.08
75219;BME280;63801;49.414;19.474;2023-07-24T07:28:14;93430.22;;;30.29;42.39
75219;BME280;63801;49.414;19.474;2023-07-24T07:30:15;93430.78;;;30.33;41.65
75219;BME280;63801;49.414;19.474;2023-07-24T07:32:16;93427.88;;;30.57;41.92
75219;BME280;63801;49.414;19.474;2023-07-24T07:34:20;93426.44;;;30.82;41.33
75219;BME280;63801;49.414;19.474;2023-07-24T07:36:21;93423.72;;;31.02;41.06
75219;BME280;63801;49.414;19.474;2023-07-24T07:38:23;93431.19;;;30.96;40.98
75219;BME280;63801;49.414;19.474;2023-07-24T07:40:34;93430.28;;;30.84;40.64
75219;BME280;63801;49.414;19.474;2023-07-24T07:43:00;93432.97;;;30.78;40.96
75219;BME280;63801;49.414;19.474;2023-07-24T07:45:01;93425.09;;;30.77;41.37
75219;BME280;63801;49.414;19.474;2023-07-24T07:47:02;93410.72;;;30.78;41.04
75219;BME280;63801;49.414;19.474;2023-07-24T07:49:02;93414.63;;;30.87;40.87
75219;BME280;63801;49.414;19.474;2023-07-24T07:51:03;93423.84;;;30.98;40.47
75219;BME280;63801;49.414;19.474;2023-07-24T07:53:03;93415.31;;;31.22;40.33
75219;BME280;63801;49.414;19.474;2023-07-24T07:55:04;93420.09;;;31.62;40.39
75219;BME280;63801;49.414;19.474;2023-07-24T07:57:06;93417.56;;;32.16;39.55
75219;BME280;63801;49.414;19.474;2023-07-24T07:59:06;93410.38;;;32.40;39.13
75219;BME280;63801;49.414;19.474;2023-07-24T08:01:07;93411.53;;;32.60;37.96
75219;BME280;63801;49.414;19.474;2023-07-24T08:03:07;93415.38;;;32.62;37.99
75219;BME280;63801;49.414;19.474;2023-07-24T08:05:08;93418.75;;;32.72;37.40
75219;BME280;63801;49.414;19.474;2023-07-24T08:07:09;93411.09;;;32.67;37.44
75219;BME280;63801;49.414;19.474;2023-07-24T08:09:09;93419.25;;;32.70;37.90
75219;BME280;63801;49.414;19.474;2023-07-24T08:11:10;93421.81;;;32.74;37.43
75219;BME280;63801;49.414;19.474;2023-07-24T08:13:10;93418.34;;;32.90;38.05
75219;BME280;63801;49.414;19.474;2023-07-24T08:15:10;93427.03;;;33.03;37.71
75219;BME280;63801;49.414;19.474;2023-07-24T08:17:11;93408.28;;;33.09;36.35
75219;BME280;63801;49.414;19.474;2023-07-24T08:19:12;93413.50;;;32.90;37.12
75219;BME280;63801;49.414;19.474;2023-07-24T08:21:12;93416.22;;;32.74;35.47
75219;BME280;63801;49.414;19.474;2023-07-24T08:23:13;93387.09;;;32.43;35.74
75219;BME280;63801;49.414;19.474;2023-07-24T08:25:14;93405.41;;;32.19;34.22
75219;BME280;63801;49.414;19.474;2023-07-24T08:27:14;93386.84;;;32.10;34.85
75219;BME280;63801;49.414;19.474;2023-07-24T08:29:14;93401.84;;;32.18;33.68
75219;BME280;63801;49.414;19.474;2023-07-24T08:31:15;93396.03;;;32.16;34.08
75219;BME280;63801;49.414;19.474;2023-07-24T08:33:15;93399.81;;;32.13;34.16
75219;BME280;63801;49.414;19.474;2023-07-24T08:35:15;93397.56;;;32.17;34.27
75219;BME280;63801;49.414;19.474;2023-07-24T08:37:16;93413.47;;;31.85;34.49
75219;BME280;63801;49.414;19.474;2023-07-24T08:39:16;93401.34;;;31.62;35.53
75219;BME280;63801;49.414;19.474;2023-07-24T08:41:16;93411.63;;;31.31;35.10
75219;BME280;63801;49.414;19.474;2023-07-24T08:43:17;93406.25;;;30.87;35.25
75219;BME280;63801;49.414;19.474;2023-07-24T08:45:18;93390.63;;;30.54;36.61
75219;BME280;63801;49.414;19.474;2023-07-24T08:47:19;93387.50;;;30.32;36.46
75219;BME280;63801;49.414;19.474;2023-07-24T08:49:19;93401.53;;;30.23;36.89
75219;BME280;63801;49.414;19.474;2023-07-24T08:51:20;93393.59;;;30.16;37.22
75219;BME280;63801;49.414;19.474;2023-07-24T08:53:22;93393.34;;;30.14;37.46
75219;BME280;63801;49.414;19.474;2023-07-24T08:55:24;93384.28;;;30.19;37.85
75219;BME280;63801;49.414;19.474;2023-07-24T08:57:25;93394.72;;;30.24;37.70
75219;BME280;63801;49.414;19.474;2023-07-24T08:59:25;93393.97;;;30.23;37.79
75219;BME280;63801;49.414;19.474;2023-07-24T09:01:27;93381.88;;;30.26;37.92
75219;BME280;63801;49.414;19.474;2023-07-24T09:03:28;93376.50;;;30.23;38.26
75219;BME280;63801;49.414;19.474;2023-07-24T09:05:31;93384.34;;;30.39;38.33
75219;BME280;63801;49.414;19.474;2023-07-24T09:07:34;93381.91;;;30.61;37.87
75219;BME280;63801;49.414;19.474;2023-07-24T09:09:35;93388.50;;;30.64;37.55
75219;BME280;63801;49.414;19.474;2023-07-24T09:11:52;93393.28;;;30.63;37.15
75219;BME280;63801;49.414;19.474;2023-07-24T09:13:52;93389.59;;;30.37;36.99
75219;BME280;63801;49.414;19.474;2023-07-24T09:15:53;93363.47;;;30.14;36.79
75219;BME280;63801;49.414;19.474;2023-07-24T09:17:54;93377.31;;;30.09;37.15
75219;BME280;63801;49.414;19.474;2023-07-24T09:19:57;93375.31;;;29.95;37.39
75219;BME280;63801;49.414;19.474;2023-07-24T09:22:27;93370.81;;;29.97;37.70
75219;BME280;63801;49.414;19.474;2023-07-24T09:24:28;93374.25;;;30.07;37.98
75219;BME280;63801;49.414;19.474;2023-07-24T09:26:28;93362.44;;;30.12;37.98
75219;BME280;63801;49.414;19.474;2023-07-24T09:28:29;93354.09;;;30.12;38.01
75219;BME280;63801;49.414;19.474;2023-07-24T09:30:29;93362.25;;;30.15;37.59
75219;BME280;63801;49.414;19.474;2023-07-24T09:32:30;93359.88;;;30.08;37.53
75219;BME280;63801;49.414;19.474;2023-07-24T09:34:31;93345.72;;;29.92;37.93
75219;BME280;63801;49.414;19.474;2023-07-24T09:36:38;93358.19;;;29.96;37.24
75219;BME280;63801;49.414;19.474;2023-07-24T09:38:40;93350.69;;;29.87;38.00
75219;BME280;63801;49.414;19.474;2023-07-24T09:40:43;93364.88;;;29.89;38.75
75219;BME280;63801;49.414;19.474;2023-07-24T09:42:43;93343.59;;;29.86;39.26
75219;BME280;63801;49.414;19.474;2023-07-24T09:44:43;93345.41;;;29.89;39.38
75219;BME280;63801;49.414;19.474;2023-07-24T09:46:44;93344.53;;;29.83;38.97
75219;BME280;63801;49.414;19.474;2023-07-24T09:48:44;93339.78;;;29.69;38.57
75219;BME280;63801;49.414;19.474;2023-07-24T09:50:46;93337.38;;;29.62;39.10
75219;BME280;63801;49.414;19.474;2023-07-24T09:52:47;93338.53;;;29.56;39.38
75219;BME280;63801;49.414;19.474;2023-07-24T09:54:55;93348.69;;;29.44;39.46
75219;BME280;63801;49.414;19.474;2023-07-24T09:56:59;93323.84;;;29.26;39.59
75219;BME280;63801;49.414;19.474;2023-07-24T09:59:02;93341.19;;;29.21;39.71
75219;BME280;63801;49.414;19.474;2023-07-24T10:01:04;93329.69;;;29.28;39.87
75219;BME280;63801;49.414;19.474;2023-07-24T10:03:08;93327.59;;;29.52;40.08
75219;BME280;63801;49.414;19.474;2023-07-24T10:05:08;93331.34;;;29.78;40.08
75219;BME280;63801;49.414;19.474;2023-07-24T10:07:09;93326.88;;;30.01;38.37
75219;BME280;63801;49.414;19.474;2023-07-24T10:09:10;93320.72;;;30.12;38.14
75219;BME280;63801;49.414;19.474;2023-07-24T10:11:12;93314.19;;;30.15;37.64
75219;BME280;63801;49.414;19.474;2023-07-24T10:13:13;93312.25;;;30.21;37.09
75219;BME280;63801;49.414;19.474;2023-07-24T10:15:17;93318.69;;;30.27;37.58
75219;BME280;63801;49.414;19.474;2023-07-24T10:17:44;93320.25;;;30.48;37.52
75219;BME280;63801;49.414;19.474;2023-07-24T10:19:44;93322.00;;;30.66;36.92
75219;BME280;63801;49.414;19.474;2023-07-24T10:21:47;93296.56;;;30.58;36.18
75219;BME280;63801;49.414;19.474;2023-07-24T10:23:47;93312.66;;;30.69;36.74
75219;BME280;63801;49.414;19.474;2023-07-24T10:25:49;93298.09;;;30.59;35.76
75219;BME280;63801;49.414;19.474;2023-07-24T10:27:50;93303.75;;;30.65;36.43
75219;BME280;63801;49.414;19.474;2023-07-24T10:30:03;93314.41;;;30.66;35.26
75219;BME280;63801;49.414;19.474;2023-07-24T10:32:16;93316.91;;;30.64;36.18
75219;BME280;63801;49.414;19.474;2023-07-24T10:34:18;93318.66;;;30.62;35.26
75219;BME280;63801;49.414;19.474;2023-07-24T10:36:20;93308.69;;;30.55;35.75